createdAt,value
2022-09-20T00:00:09.118Z,3.30
2022-09-20T00:02:35.276Z,3.25
2022-09-20T00:05:01.411Z,3.10
2022-09-20T00:07:27.611Z,3.28
2022-09-20T00:09:53.773Z,3.38
2022-09-20T00:12:19.882Z,3.38
2022-09-20T00:14:46.035Z,4.00
2022-09-20T00:17:12.148Z,3.38
2022-09-20T00:19:38.270Z,3.30
2022-09-20T00:22:04.403Z,3.58
2022-09-20T00:24:30.534Z,3.13
2022-09-20T00:26:56.657Z,3.55
2022-09-20T00:29:22.795Z,3.70
2022-09-20T00:31:49.019Z,3.55
2022-09-20T00:34:15.155Z,3.72
2022-09-20T00:36:41.271Z,4.22
2022-09-20T00:39:07.415Z,4.70
2022-09-20T00:41:33.555Z,3.75
2022-09-20T00:43:59.699Z,4.70
2022-09-20T00:46:25.886Z,3.92
2022-09-20T00:48:53.419Z,4.47
2022-09-20T00:51:19.576Z,3.97
2022-09-20T00:53:45.674Z,4.03
2022-09-20T00:56:11.787Z,3.72
2022-09-20T00:58:37.959Z,4.40
2022-09-20T01:01:04.111Z,4.10
2022-09-20T01:03:30.293Z,4.68
2022-09-20T01:05:56.400Z,4.07
2022-09-20T01:08:22.504Z,3.55
2022-09-20T01:10:48.630Z,3.67
2022-09-20T01:13:14.748Z,4.10
2022-09-20T01:15:40.887Z,4.20
2022-09-20T01:18:07.011Z,3.45
2022-09-20T01:20:33.314Z,4.30
2022-09-20T01:22:59.418Z,4.90
2022-09-20T01:25:25.566Z,3.30
2022-09-20T01:27:51.695Z,3.70
2022-09-20T01:30:17.790Z,3.88
2022-09-20T01:32:43.925Z,3.80
2022-09-20T01:35:10.030Z,3.53
2022-09-20T01:37:36.180Z,3.83
2022-09-20T01:40:02.346Z,3.47
2022-09-20T01:42:28.525Z,3.97
2022-09-20T01:44:54.673Z,3.53
2022-09-20T01:47:20.805Z,3.45
2022-09-20T01:49:46.913Z,3.83
2022-09-20T01:52:13.040Z,3.53
2022-09-20T01:54:39.190Z,3.33
2022-09-20T01:57:05.304Z,3.45
2022-09-20T01:59:31.920Z,3.50
2022-09-20T02:01:58.361Z,3.50
2022-09-20T02:04:24.568Z,3.83
2022-09-20T02:06:50.687Z,3.90
2022-09-20T02:09:16.866Z,3.47
2022-09-20T02:11:42.999Z,3.70
2022-09-20T02:14:09.133Z,3.30
2022-09-20T02:16:35.333Z,3.00
2022-09-20T02:19:01.797Z,3.65
2022-09-20T02:21:27.926Z,3.40
2022-09-20T02:23:54.113Z,3.72
2022-09-20T02:26:20.240Z,3.50
2022-09-20T02:28:46.375Z,3.20
2022-09-20T02:31:12.567Z,3.83
2022-09-20T02:33:38.774Z,3.58
2022-09-20T02:36:04.887Z,3.70
2022-09-20T02:38:31.035Z,3.83
2022-09-20T02:40:57.187Z,2.90
2022-09-20T02:43:23.290Z,3.47
2022-09-20T02:45:49.558Z,3.25
2022-09-20T02:48:15.716Z,3.92
2022-09-20T02:50:41.843Z,3.30
2022-09-20T02:53:07.956Z,3.10
2022-09-20T02:55:34.084Z,3.30
2022-09-20T02:58:00.191Z,3.53
2022-09-20T03:00:26.341Z,3.28
2022-09-20T03:02:52.448Z,3.63
2022-09-20T03:05:18.572Z,4.07
2022-09-20T03:07:44.704Z,3.17
2022-09-20T03:10:10.809Z,3.00
2022-09-20T03:12:36.942Z,3.17
2022-09-20T03:15:03.060Z,3.45
2022-09-20T03:17:29.191Z,3.13
2022-09-20T03:19:55.327Z,3.35
2022-09-20T03:22:21.445Z,3.60
2022-09-20T03:24:47.578Z,3.30
2022-09-20T03:27:13.715Z,3.20
2022-09-20T03:29:39.872Z,3.30
2022-09-20T03:32:06.076Z,3.47
2022-09-20T03:34:32.228Z,3.55
2022-09-20T03:36:58.385Z,3.28
2022-09-20T03:39:24.489Z,3.30
2022-09-20T03:41:50.612Z,3.08
2022-09-20T03:44:16.786Z,3.17
2022-09-20T03:46:42.887Z,3.00
2022-09-20T03:49:09.013Z,3.40
2022-09-20T03:51:35.144Z,3.40
2022-09-20T03:54:01.266Z,3.53
2022-09-20T03:56:27.378Z,2.72
2022-09-20T03:58:53.525Z,3.65
2022-09-20T04:01:19.801Z,3.33
2022-09-20T04:03:46.120Z,3.33
2022-09-20T04:06:12.224Z,2.95
2022-09-20T04:08:40.381Z,3.20
2022-09-20T04:11:06.674Z,3.78
2022-09-20T04:13:32.789Z,3.00
2022-09-20T04:15:58.922Z,3.38
2022-09-20T04:18:25.040Z,3.25
2022-09-20T04:20:51.173Z,3.00
2022-09-20T04:23:17.286Z,3.17
2022-09-20T04:25:44.285Z,2.85
2022-09-20T04:28:10.491Z,2.53
2022-09-20T04:30:36.606Z,3.10
2022-09-20T04:33:02.733Z,2.60
2022-09-20T04:35:28.852Z,2.75
2022-09-20T04:37:55.011Z,2.47
2022-09-20T04:40:21.186Z,3.17
2022-09-20T04:42:47.344Z,2.80
2022-09-20T04:45:13.475Z,2.58
2022-09-20T04:47:39.618Z,2.70
2022-09-20T04:50:05.745Z,2.80
2022-09-20T04:52:34.843Z,2.63
2022-09-20T04:55:01.008Z,2.80
2022-09-20T04:57:27.124Z,3.20
2022-09-20T04:59:53.255Z,2.92
2022-09-20T05:02:19.473Z,3.03
2022-09-20T05:04:45.627Z,3.22
2022-09-20T05:07:11.770Z,2.53
2022-09-20T05:09:37.929Z,2.67
2022-09-20T05:12:04.058Z,2.50
2022-09-20T05:17:01.283Z,3.03
2022-09-20T05:19:27.476Z,3.00
2022-09-20T05:21:53.596Z,2.53
2022-09-20T05:24:19.740Z,3.95
2022-09-20T05:26:45.876Z,3.05
2022-09-20T05:29:11.976Z,3.53
2022-09-20T05:31:38.181Z,3.13
2022-09-20T05:34:04.374Z,3.33
2022-09-20T05:36:34.448Z,2.83
2022-09-20T05:39:03.392Z,4.10
2022-09-20T05:41:29.978Z,3.80
2022-09-20T05:43:56.136Z,3.70
2022-09-20T05:46:22.268Z,3.50
2022-09-20T05:48:48.383Z,3.50
2022-09-20T05:51:14.603Z,3.20
2022-09-20T05:53:40.765Z,3.22
2022-09-20T05:56:06.959Z,3.83
2022-09-20T05:58:33.146Z,4.15
2022-09-20T06:00:59.862Z,3.70
2022-09-20T06:03:26.051Z,4.20
2022-09-20T06:05:52.167Z,3.63
2022-09-20T06:08:20.597Z,4.20
2022-09-20T06:10:46.779Z,3.97
2022-09-20T06:13:12.897Z,5.10
2022-09-20T06:15:39.059Z,4.93
2022-09-20T06:18:05.163Z,4.22
2022-09-20T06:20:31.269Z,4.55
2022-09-20T06:22:57.418Z,4.03
2022-09-20T06:25:23.544Z,4.22
2022-09-20T06:27:49.862Z,4.20
2022-09-20T06:30:15.994Z,5.40
2022-09-20T06:32:42.123Z,3.80
2022-09-20T06:35:08.289Z,4.30
2022-09-20T06:37:34.408Z,3.97
2022-09-20T06:40:00.564Z,3.92
2022-09-20T06:42:27.409Z,4.18
2022-09-20T06:44:53.630Z,4.18
2022-09-20T06:47:19.800Z,4.10
2022-09-20T06:49:46.000Z,3.50
2022-09-20T06:52:12.138Z,3.97
2022-09-20T06:54:38.283Z,4.00
2022-09-20T06:57:04.425Z,3.85
2022-09-20T06:59:30.621Z,4.00
2022-09-20T07:01:56.789Z,3.63
2022-09-20T07:04:22.943Z,3.45
2022-09-20T07:06:49.071Z,3.13
2022-09-20T07:09:15.205Z,3.47
2022-09-20T07:11:41.371Z,3.40
2022-09-20T07:14:07.565Z,4.65
2022-09-20T07:16:33.743Z,3.67
2022-09-20T07:18:59.906Z,4.00
2022-09-20T07:21:26.056Z,3.88
2022-09-20T07:23:52.252Z,3.92
2022-09-20T07:26:18.438Z,3.47
2022-09-20T07:28:44.566Z,3.67
2022-09-20T07:31:10.695Z,4.65
2022-09-20T07:33:36.852Z,4.00
2022-09-20T07:36:02.993Z,4.00
2022-09-20T07:38:29.118Z,3.70
2022-09-20T07:40:55.277Z,4.05
2022-09-20T07:43:21.407Z,4.50
2022-09-20T07:45:47.573Z,4.50
2022-09-20T07:48:13.713Z,4.40
2022-09-20T07:50:39.848Z,3.90
2022-09-20T07:53:05.955Z,5.05
2022-09-20T07:55:32.093Z,5.38
2022-09-20T07:57:58.204Z,4.82
2022-09-20T08:00:24.364Z,4.10
2022-09-20T08:02:50.500Z,4.68
2022-09-20T08:05:16.641Z,4.60
2022-09-20T08:07:42.800Z,4.38
2022-09-20T08:10:08.964Z,4.88
2022-09-20T08:15:21.282Z,4.75
2022-09-20T08:17:47.405Z,4.60
2022-09-20T08:20:13.568Z,4.30
2022-09-20T08:22:39.713Z,4.85
2022-09-20T08:25:05.862Z,5.25
2022-09-20T08:27:31.990Z,5.00
2022-09-20T08:29:58.114Z,5.78
2022-09-20T08:32:24.259Z,7.50
2022-09-20T08:34:50.387Z,7.05
2022-09-20T08:37:16.522Z,7.10
2022-09-20T08:39:58.860Z,5.70
2022-09-20T08:42:25.370Z,6.45
2022-09-20T08:44:59.156Z,6.20
2022-09-20T08:47:25.516Z,5.68
2022-09-20T08:49:56.997Z,5.35
2022-09-20T08:52:23.361Z,5.60
2022-09-20T08:54:49.517Z,6.93
2022-09-20T08:57:15.653Z,7.05
2022-09-20T08:59:41.799Z,6.85
2022-09-20T09:02:07.950Z,6.93
2022-09-20T09:04:34.130Z,6.72
2022-09-20T09:07:00.275Z,7.10
2022-09-20T09:09:26.415Z,7.20
2022-09-20T09:11:52.524Z,7.50
2022-09-20T09:14:18.675Z,6.57
2022-09-20T09:16:44.844Z,7.07
2022-09-20T09:19:11.028Z,5.93
2022-09-20T09:21:37.144Z,6.32
2022-09-20T09:24:03.306Z,6.07
2022-09-20T09:26:29.470Z,6.00
2022-09-20T09:28:55.639Z,5.38
2022-09-20T09:31:21.851Z,6.38
2022-09-20T09:33:48.015Z,5.65
2022-09-20T09:36:14.185Z,5.15
2022-09-20T09:38:40.327Z,5.20
2022-09-20T09:41:06.465Z,4.95
2022-09-20T09:43:32.566Z,4.70
2022-09-20T09:45:58.732Z,4.65
2022-09-20T09:48:24.923Z,5.22
2022-09-20T09:50:51.042Z,5.38
2022-09-20T09:53:17.195Z,5.13
2022-09-20T09:55:43.328Z,4.80
2022-09-20T09:58:09.446Z,4.82
2022-09-20T10:00:35.586Z,4.63
2022-09-20T10:03:01.736Z,3.95
2022-09-20T10:05:27.877Z,4.65
2022-09-20T10:07:54.023Z,3.97
2022-09-20T10:10:20.152Z,4.28
2022-09-20T10:12:52.100Z,3.72
2022-09-20T10:15:18.478Z,3.83
2022-09-20T10:17:44.642Z,4.13
2022-09-20T10:20:10.788Z,3.65
2022-09-20T10:22:36.925Z,3.22
2022-09-20T10:25:03.078Z,3.95
2022-09-20T10:27:29.952Z,4.10
2022-09-20T10:29:56.071Z,3.58
2022-09-20T10:32:22.214Z,3.05
2022-09-20T10:34:48.378Z,4.65
2022-09-20T10:37:14.522Z,3.00
2022-09-20T10:39:40.659Z,3.40
2022-09-20T10:42:06.813Z,3.53
2022-09-20T10:44:32.951Z,3.45
2022-09-20T10:46:59.150Z,3.78
2022-09-20T10:49:25.328Z,3.17
2022-09-20T10:51:51.597Z,3.67
2022-09-20T10:54:17.713Z,3.28
2022-09-20T10:56:43.887Z,3.83
2022-09-20T10:59:10.008Z,3.70
2022-09-20T11:01:36.309Z,3.05
2022-09-20T11:04:02.446Z,2.22
2022-09-20T11:06:28.573Z,3.75
2022-09-20T11:08:54.713Z,2.58
2022-09-20T11:11:20.843Z,2.20
2022-09-20T11:13:50.034Z,3.63
2022-09-20T11:16:16.286Z,4.00
2022-09-20T11:18:42.449Z,3.55
2022-09-20T11:21:08.608Z,3.40
2022-09-20T11:23:34.713Z,2.50
2022-09-20T11:26:00.825Z,2.63
2022-09-20T11:28:26.984Z,2.72
2022-09-20T11:30:53.456Z,2.97
2022-09-20T11:33:19.630Z,2.63
2022-09-20T11:35:45.780Z,2.63
2022-09-20T11:38:11.927Z,2.65
2022-09-20T11:40:38.174Z,2.15
2022-09-20T11:43:04.372Z,2.28
2022-09-20T11:45:30.564Z,2.20
2022-09-20T11:47:56.751Z,1.90
2022-09-20T11:50:22.864Z,1.90
2022-09-20T11:52:49.014Z,1.80
2022-09-20T11:55:15.159Z,1.50
2022-09-20T11:57:41.294Z,1.70
2022-09-20T12:00:07.427Z,1.65
2022-09-20T12:02:33.652Z,1.65
2022-09-20T12:05:01.938Z,1.70
2022-09-20T12:07:28.095Z,1.83
2022-09-20T12:09:55.247Z,1.63
2022-09-20T12:12:21.382Z,1.30
2022-09-20T12:14:47.553Z,1.60
2022-09-20T12:17:13.671Z,1.60
2022-09-20T12:19:39.805Z,1.40
2022-09-20T12:22:05.950Z,1.77
2022-09-20T12:24:32.081Z,1.58
2022-09-20T12:26:59.096Z,1.67
2022-09-20T12:29:25.261Z,1.45
2022-09-20T12:31:51.438Z,1.90
2022-09-20T12:34:17.605Z,1.83
2022-09-20T12:36:43.771Z,1.70
2022-09-20T12:39:17.558Z,1.40
2022-09-20T12:41:45.321Z,2.47
2022-09-20T12:44:11.456Z,1.88
2022-09-20T12:46:37.632Z,1.80
2022-09-20T12:49:03.753Z,1.88
2022-09-20T12:51:29.979Z,1.80
2022-09-20T12:53:56.124Z,1.90
2022-09-20T12:56:22.311Z,2.25
2022-09-20T12:58:48.435Z,2.30
2022-09-20T13:01:14.931Z,2.13
2022-09-20T13:03:41.138Z,2.50
2022-09-20T13:06:07.352Z,2.95
2022-09-20T13:08:33.547Z,2.22
2022-09-20T13:10:59.692Z,2.10
2022-09-20T13:13:25.833Z,2.10
2022-09-20T13:15:51.972Z,1.95
2022-09-20T13:18:18.130Z,2.42
2022-09-20T13:20:44.288Z,1.58
2022-09-20T13:23:10.423Z,1.38
2022-09-20T13:25:36.537Z,1.60
2022-09-20T13:28:02.699Z,1.60
2022-09-20T13:30:28.839Z,1.38
2022-09-20T13:32:54.943Z,1.25
2022-09-20T13:35:21.104Z,1.48
2022-09-20T13:37:47.222Z,1.50
2022-09-20T13:40:13.456Z,1.77
2022-09-20T13:42:39.760Z,1.42
2022-09-20T13:45:05.958Z,1.40
2022-09-20T13:47:32.097Z,1.65
2022-09-20T13:49:58.209Z,2.03
2022-09-20T13:52:24.332Z,1.85
2022-09-20T13:54:50.493Z,1.45
2022-09-20T13:57:16.627Z,1.80
2022-09-20T13:59:42.791Z,2.28
2022-09-20T14:02:08.948Z,1.75
2022-09-20T14:04:37.174Z,1.88
2022-09-20T14:07:03.319Z,2.20
2022-09-20T14:09:29.438Z,2.30
2022-09-20T14:11:55.601Z,1.70
2022-09-20T14:14:22.451Z,1.70
2022-09-20T14:16:48.693Z,2.00
2022-09-20T14:19:14.821Z,2.22
2022-09-20T14:21:40.945Z,1.83
2022-09-20T14:24:07.048Z,1.95
2022-09-20T14:26:33.185Z,2.15
2022-09-20T14:28:59.315Z,1.52
2022-09-20T14:31:25.493Z,1.90
2022-09-20T14:33:54.980Z,2.17
2022-09-20T14:36:21.505Z,2.15
2022-09-20T14:38:49.316Z,1.98
2022-09-20T14:41:15.461Z,2.10
2022-09-20T14:43:41.578Z,1.95
2022-09-20T14:46:07.765Z,2.10
2022-09-20T14:48:33.923Z,2.15
2022-09-20T14:51:00.039Z,2.33
2022-09-20T14:53:26.194Z,2.50
2022-09-20T14:55:52.333Z,2.00
2022-09-20T14:58:18.493Z,1.95
2022-09-20T15:00:44.629Z,2.35
2022-09-20T15:03:10.797Z,2.20
2022-09-20T15:05:36.976Z,2.00
2022-09-20T15:08:03.108Z,1.70
2022-09-20T15:10:29.330Z,1.52
2022-09-20T15:12:55.466Z,1.73
2022-09-20T15:15:21.684Z,1.80
2022-09-20T15:17:47.837Z,1.80
2022-09-20T15:20:13.980Z,1.40
2022-09-20T15:22:40.099Z,1.75
2022-09-20T15:25:06.262Z,1.50
2022-09-20T15:27:35.235Z,1.83
2022-09-20T15:30:01.384Z,1.80
2022-09-20T15:32:27.611Z,1.73
2022-09-20T15:34:53.754Z,1.70
2022-09-20T15:37:19.922Z,2.22
2022-09-20T15:39:46.063Z,1.80
2022-09-20T15:42:12.195Z,1.60
2022-09-20T15:44:38.346Z,1.80
2022-09-20T15:47:07.658Z,2.17
2022-09-20T15:49:33.775Z,2.05
2022-09-20T15:51:59.920Z,1.42
2022-09-20T15:54:26.033Z,1.45
2022-09-20T15:56:52.159Z,1.70
2022-09-20T15:59:19.384Z,1.60
2022-09-20T16:01:45.549Z,1.40
2022-09-20T16:04:11.667Z,1.67
2022-09-20T16:06:37.797Z,1.88
2022-09-20T16:09:03.957Z,1.65
2022-09-20T16:11:30.078Z,1.98
2022-09-20T16:13:56.258Z,1.63
2022-09-20T16:16:22.503Z,1.90
2022-09-20T16:18:48.632Z,1.77
2022-09-20T16:21:14.764Z,1.75
2022-09-20T16:23:40.901Z,2.10
2022-09-20T16:26:07.039Z,1.95
2022-09-20T16:28:33.192Z,1.40
2022-09-20T16:30:59.321Z,1.85
2022-09-20T16:33:25.494Z,1.70
2022-09-20T16:35:51.691Z,1.38
2022-09-20T16:38:17.840Z,1.48
2022-09-20T16:40:43.991Z,1.90
2022-09-20T16:43:10.215Z,2.03
2022-09-20T16:45:39.522Z,1.50
2022-09-20T16:48:08.607Z,1.63
2022-09-20T16:50:34.961Z,1.95
2022-09-20T16:53:01.114Z,1.98
2022-09-20T16:55:27.299Z,2.17
2022-09-20T16:57:53.452Z,2.10
2022-09-20T17:00:19.602Z,1.50
2022-09-20T17:02:47.864Z,1.92
2022-09-20T17:05:14.179Z,1.80
2022-09-20T17:07:40.423Z,2.10
2022-09-20T17:10:07.705Z,1.83
2022-09-20T17:12:33.850Z,2.03
2022-09-20T17:14:59.991Z,1.70
2022-09-20T17:17:26.132Z,2.00
2022-09-20T17:19:53.470Z,1.88
2022-09-20T17:22:19.806Z,1.75
2022-09-20T17:24:46.004Z,1.77
2022-09-20T17:27:12.244Z,2.10
2022-09-20T17:29:40.482Z,1.90
2022-09-20T17:32:06.666Z,2.03
2022-09-20T17:34:35.435Z,2.08
2022-09-20T17:37:01.606Z,2.22
2022-09-20T17:39:29.906Z,2.25
2022-09-20T17:41:56.149Z,2.47
2022-09-20T17:44:22.344Z,2.45
2022-09-20T17:46:48.823Z,2.25
2022-09-20T17:49:17.189Z,2.50
2022-09-20T17:51:43.318Z,2.75
2022-09-20T17:54:09.460Z,4.40
2022-09-20T17:56:36.721Z,4.65
2022-09-20T17:59:03.061Z,5.88
2022-09-20T18:01:29.215Z,5.30
2022-09-20T18:03:55.465Z,2.60
2022-09-20T18:06:21.650Z,2.50
2022-09-20T18:08:47.818Z,2.85
2022-09-20T18:11:14.145Z,4.32
2022-09-20T18:13:40.345Z,3.85
2022-09-20T18:16:09.343Z,2.88
2022-09-20T18:18:35.497Z,2.45
2022-09-20T18:21:01.629Z,2.33
2022-09-20T18:23:27.774Z,2.13
2022-09-20T18:25:54.027Z,2.20
2022-09-20T18:28:21.224Z,2.42
2022-09-20T18:30:47.366Z,1.92
2022-09-20T18:33:13.536Z,2.40
2022-09-20T18:35:39.747Z,1.98
2022-09-20T18:38:12.027Z,2.30
2022-09-20T18:40:38.519Z,2.83
2022-09-20T18:43:04.980Z,2.80
2022-09-20T18:45:31.241Z,2.75
2022-09-20T18:47:59.468Z,2.80
2022-09-20T18:50:26.302Z,3.28
2022-09-20T18:52:52.433Z,2.92
2022-09-20T18:55:18.648Z,2.90
2022-09-20T18:57:44.801Z,2.40
2022-09-20T19:00:10.936Z,2.63
2022-09-20T19:02:37.074Z,2.50
2022-09-20T19:05:03.389Z,2.38
2022-09-20T19:07:29.553Z,2.47
2022-09-20T19:09:55.878Z,2.50
2022-09-20T19:12:22.076Z,2.42
2022-09-20T19:14:48.226Z,2.63
2022-09-20T19:17:14.388Z,2.80
2022-09-20T19:19:40.546Z,2.63
2022-09-20T19:22:06.665Z,2.63
2022-09-20T19:24:33.079Z,2.80
2022-09-20T19:26:59.416Z,3.40
2022-09-20T19:29:25.631Z,2.70
2022-09-20T19:31:51.832Z,2.75
2022-09-20T19:34:18.022Z,2.60
2022-09-20T19:36:44.204Z,2.50
2022-09-20T19:39:10.377Z,2.75
2022-09-20T19:41:36.833Z,2.88
2022-09-20T19:44:02.988Z,3.03
2022-09-20T19:46:29.197Z,3.03
2022-09-20T19:48:55.331Z,3.15
2022-09-20T19:51:21.480Z,2.67
2022-09-20T19:53:47.634Z,2.92
2022-09-20T19:56:13.742Z,3.10
2022-09-20T19:58:39.900Z,4.93
2022-09-20T20:01:06.082Z,5.82
2022-09-20T20:03:32.221Z,4.68
2022-09-20T20:05:58.407Z,2.80
2022-09-20T20:08:24.566Z,2.60
2022-09-20T20:10:50.685Z,2.88
2022-09-20T20:13:16.842Z,2.70
2022-09-20T20:15:42.993Z,2.60
2022-09-20T20:18:11.350Z,2.45
2022-09-20T20:20:40.718Z,2.95
2022-09-20T20:23:06.884Z,2.60
2022-09-20T20:25:33.025Z,3.03
2022-09-20T20:27:59.195Z,2.58
2022-09-20T20:30:25.347Z,3.05
2022-09-20T20:32:51.502Z,2.65
2022-09-20T20:35:17.654Z,2.97
2022-09-20T20:37:43.805Z,2.75
2022-09-20T20:40:10.182Z,2.67
2022-09-20T20:42:36.328Z,3.10
2022-09-20T20:45:02.500Z,3.25
2022-09-20T20:47:28.656Z,3.00
2022-09-20T20:49:54.788Z,3.35
2022-09-20T20:52:20.964Z,3.00
2022-09-20T20:54:47.088Z,3.10
2022-09-20T20:57:13.212Z,3.13
2022-09-20T20:59:39.360Z,3.38
2022-09-20T21:02:07.943Z,3.78
2022-09-20T21:04:34.372Z,3.35
2022-09-20T21:07:00.509Z,9.25
2022-09-20T21:09:26.690Z,5.50
2022-09-20T21:11:52.919Z,4.55
2022-09-20T21:14:19.332Z,3.67
2022-09-20T21:16:45.490Z,3.05
2022-09-20T21:19:11.603Z,3.10
2022-09-20T21:21:37.726Z,3.33
2022-09-20T21:24:03.887Z,3.67
2022-09-20T21:26:30.029Z,3.42
2022-09-20T21:28:56.163Z,4.40
2022-09-20T21:31:22.398Z,3.63
2022-09-20T21:33:48.702Z,3.40
2022-09-20T21:36:14.891Z,3.53
2022-09-20T21:38:41.060Z,3.60
2022-09-20T21:41:07.229Z,3.65
2022-09-20T21:43:33.366Z,4.35
2022-09-20T21:45:59.597Z,3.78
2022-09-20T21:48:25.755Z,4.43
2022-09-20T21:50:51.870Z,4.05
2022-09-20T21:53:18.033Z,3.85
2022-09-20T21:55:44.224Z,3.65
2022-09-20T21:58:10.428Z,3.85
2022-09-20T22:00:36.555Z,3.95
2022-09-20T22:03:02.808Z,3.83
2022-09-20T22:05:28.976Z,3.83
2022-09-20T22:07:55.081Z,4.30
2022-09-20T22:10:21.213Z,3.53
2022-09-20T22:12:47.384Z,3.90
2022-09-20T22:15:13.532Z,3.70
2022-09-20T22:17:39.817Z,3.80
2022-09-20T22:20:05.974Z,3.67
2022-09-20T22:22:32.109Z,3.65
2022-09-20T22:24:58.237Z,3.72
2022-09-20T22:27:24.425Z,3.67
2022-09-20T22:29:50.556Z,3.08
2022-09-20T22:32:16.748Z,3.33
2022-09-20T22:34:42.886Z,3.55
2022-09-20T22:37:09.013Z,3.13
2022-09-20T22:39:35.162Z,3.50
2022-09-20T22:42:01.296Z,3.58
2022-09-20T22:44:27.454Z,3.28
2022-09-20T22:46:53.794Z,3.15
2022-09-20T22:49:19.926Z,3.17
2022-09-20T22:51:46.056Z,3.78
2022-09-20T22:54:12.248Z,2.95
2022-09-20T22:56:38.394Z,3.80
2022-09-20T22:59:04.576Z,3.15
2022-09-20T23:01:30.753Z,4.10
2022-09-20T23:03:57.118Z,3.47
2022-09-20T23:06:23.368Z,3.83
2022-09-20T23:08:49.513Z,3.42
2022-09-20T23:11:15.741Z,3.60
2022-09-20T23:13:41.955Z,3.70
2022-09-20T23:16:08.141Z,3.53
2022-09-20T23:18:34.279Z,3.60
2022-09-20T23:21:00.396Z,3.40
2022-09-20T23:23:27.474Z,3.63
2022-09-20T23:25:53.704Z,3.17
2022-09-20T23:28:19.854Z,3.75
2022-09-20T23:30:46.032Z,3.78
2022-09-20T23:33:12.186Z,3.28
2022-09-20T23:35:38.318Z,3.97
2022-09-20T23:38:04.460Z,3.42
2022-09-20T23:40:30.665Z,3.50
2022-09-20T23:42:56.811Z,4.28
2022-09-20T23:45:23.016Z,4.30
2022-09-20T23:47:49.163Z,4.32
2022-09-20T23:50:15.302Z,3.80
2022-09-20T23:52:41.417Z,4.35
2022-09-20T23:55:07.663Z,3.50
2022-09-20T23:57:33.842Z,3.40
2022-09-20T23:59:59.970Z,3.90
